»·PEaware :: SWA851 KSFO-KLAS

SWA851 :: KSFO-KLAS

FLIGHT INFORMATION

Flight Status: Arrived
Operator:
Southwest Airlines
More flights by this operator :: More flights under this callsign
Pilot: Brandon G. (13)
Aircraft: BOEING 737-800
(B738)
More flights by this aircraft type
Origin: KSFO San Francisco Intl
United States
Destination: KLAS McCarran Intl
United States
More flights between these airports :: More routes between these airports
Route: +SSTIK3 NTELL Q162 ESSAA BTY SUNST4
File this flight plan on PilotEdge
Remarks:
Altitude:
(Current/Filed)
29,000ft
Speed:
(Current/Filed)
425kts
Departed: 03-Jan-18 12:32 PM
Arrived: 03-Jan-18 01:37 PM
Distance/Time
Traveled:
359nm/1:05
Distance/Time
To Go:
Arrived

Flight Plot

Page will automatically refresh every two minutes.

Flight plan parsing failed; only flown route is shown


Map Options




Map Legend


Flown Route
Filed Route
Departure Airport
Arrival Airport
Navaid (VOR, NDB)
Fix

Horizontal Profiles

Position Reports

Time Latitude Longitude Heading Altitude Ground
Speed
03-Jan-18 12:04 37.612630 -122.384671 6 31ft 0kts
03-Jan-18 12:05 37.612630 -122.384671 6 31ft 0kts
03-Jan-18 12:06 37.612630 -122.384671 6 31ft 0kts
03-Jan-18 12:07 37.612630 -122.384671 6 31ft 0kts
03-Jan-18 12:08 37.612630 -122.384671 6 31ft 0kts
03-Jan-18 12:09 37.612630 -122.384671 6 31ft 0kts
03-Jan-18 12:10 37.612630 -122.384671 6 31ft 0kts
03-Jan-18 12:11 37.612630 -122.384671 6 31ft 0kts
03-Jan-18 12:12 37.612630 -122.384671 6 31ft 0kts
03-Jan-18 12:13 37.612630 -122.384671 6 31ft 0kts
03-Jan-18 12:14 37.612630 -122.384671 6 31ft 0kts
03-Jan-18 12:15 37.612630 -122.384671 6 31ft 0kts
03-Jan-18 12:16 37.612630 -122.384671 6 31ft 0kts
03-Jan-18 12:17 37.612630 -122.384671 6 31ft 0kts
03-Jan-18 12:18 37.612630 -122.384671 6 31ft 0kts
03-Jan-18 12:19 37.612630 -122.384671 6 31ft 0kts
03-Jan-18 12:20 37.612630 -122.384671 6 31ft 0kts
03-Jan-18 12:21 37.612630 -122.384671 6 31ft 0kts
03-Jan-18 12:22 37.612630 -122.384671 6 31ft 0kts
03-Jan-18 12:23 37.612630 -122.384671 6 31ft 0kts
03-Jan-18 12:24 37.612630 -122.384671 6 31ft 0kts
03-Jan-18 12:25 37.612588 -122.384677 6 31ft 2kts
03-Jan-18 12:26 37.612002 -122.384758 7 31ft 2kts
03-Jan-18 12:27 37.611411 -122.384821 6 31ft 2kts
03-Jan-18 12:28 37.611279 -122.384957 72 31ft 0kts
03-Jan-18 12:29 37.611279 -122.384956 72 31ft 0kts
03-Jan-18 12:30 37.611279 -122.384956 72 31ft 0kts
03-Jan-18 12:31 37.611347 -122.384685 72 31ft 4kts
03-Jan-18 12:32 37.611401 -122.384180 102 31ft 0kts
03-Jan-18 12:33 37.611395 -122.384144 102 31ft 0kts
03-Jan-18 12:34 37.610708 -122.383550 198 31ft 9kts
03-Jan-18 12:35 37.608589 -122.384133 118 31ft 9kts
03-Jan-18 12:36 37.608442 -122.383777 117 30ft 0kts
03-Jan-18 12:37 37.608584 -122.382473 29 29ft 0kts
03-Jan-18 12:38 37.614746 -122.378396 28 28ft 134kts
03-Jan-18 12:39 37.661641 -122.355773 351 1909ft 245kts
03-Jan-18 12:40 37.695342 -122.418446 251 5515ft 276kts
03-Jan-18 12:41 37.634206 -122.465821 180 9364ft 277kts
03-Jan-18 12:42 37.554516 -122.470688 181 12730ft 301kts
03-Jan-18 12:43 37.476205 -122.445546 135 16146ft 316kts
03-Jan-18 12:44 37.421618 -122.355773 130 19312ft 334kts
03-Jan-18 12:45 37.391281 -122.242175 110 22157ft 361kts
03-Jan-18 12:46 37.364881 -122.118704 111 24753ft 378kts
03-Jan-18 12:47 37.337359 -121.991721 111 27077ft 395kts
03-Jan-18 12:48 37.308261 -121.857073 111 29107ft 410kts
03-Jan-18 12:49 37.277400 -121.713675 110 29127ft 446kts
03-Jan-18 12:50 37.244477 -121.559610 110 29118ft 467kts
03-Jan-18 12:51 37.210489 -121.399767 109 29123ft 478kts
03-Jan-18 12:52 37.178351 -121.247847 110 29132ft 477kts
03-Jan-18 12:53 37.144531 -121.086897 109 29134ft 485kts
03-Jan-18 12:54 37.110314 -120.923118 109 29142ft 493kts
03-Jan-18 12:55 37.086519 -120.756502 88 29126ft 494kts
03-Jan-18 12:56 37.103399 -120.586437 86 29134ft 495kts
03-Jan-18 12:57 37.120470 -120.415826 86 29135ft 496kts
03-Jan-18 12:58 37.136703 -120.251184 87 29132ft 496kts
03-Jan-18 12:59 37.153371 -120.080136 87 29133ft 496kts
03-Jan-18 13:00 37.169644 -119.910076 87 29134ft 496kts
03-Jan-18 13:01 37.185752 -119.739427 87 29135ft 496kts
03-Jan-18 13:02 37.201545 -119.568980 87 29136ft 496kts
03-Jan-18 13:03 37.217080 -119.398836 87 29181ft 496kts
03-Jan-18 13:04 37.232075 -119.232183 87 29264ft 491kts
03-Jan-18 13:05 37.247152 -119.062120 87 29309ft 491kts
03-Jan-18 13:06 37.262034 -118.890436 86 29317ft 501kts
03-Jan-18 13:07 37.276995 -118.716184 85 29310ft 504kts
03-Jan-18 13:08 37.306434 -118.545281 65 29309ft 508kts
03-Jan-18 13:09 37.361817 -118.382474 66 29286ft 508kts
03-Jan-18 13:10 37.415745 -118.223813 67 29281ft 507kts
03-Jan-18 13:11 37.471181 -118.060891 67 29283ft 507kts
03-Jan-18 13:12 37.524935 -117.897465 76 29267ft 506kts
03-Jan-18 13:13 37.504941 -117.729844 125 29295ft 489kts
03-Jan-18 13:14 37.433462 -117.583814 125 29287ft 491kts
03-Jan-18 13:15 37.361644 -117.438385 125 29308ft 490kts
03-Jan-18 13:16 37.291560 -117.297667 129 29309ft 487kts
03-Jan-18 13:17 37.209340 -117.164307 132 29317ft 487kts
03-Jan-18 13:18 37.128962 -117.032842 132 29282ft 479kts
03-Jan-18 13:19 37.040983 -116.910360 153 28776ft 470kts
03-Jan-18 13:20 36.928308 -116.835534 156 26916ft 447kts
03-Jan-18 13:21 36.825656 -116.764884 155 24773ft 434kts
03-Jan-18 13:22 36.739194 -116.661040 134 24242ft 442kts
03-Jan-18 13:23 36.658681 -116.546137 134 22775ft 436kts
03-Jan-18 13:24 36.581128 -116.436053 134 21290ft 422kts
03-Jan-18 13:25 36.505928 -116.329274 134 20277ft 416kts
03-Jan-18 13:26 36.430377 -116.222251 134 19269ft 409kts
03-Jan-18 13:27 36.355704 -116.117635 134 18276ft 403kts
03-Jan-18 13:28 36.282110 -116.014601 133 17092ft 394kts
03-Jan-18 13:29 36.214339 -115.919500 133 16163ft 342kts
03-Jan-18 13:30 36.174668 -115.820260 113 16021ft 324kts
03-Jan-18 13:31 36.141392 -115.716295 113 15799ft 331kts
03-Jan-18 13:32 36.107149 -115.609816 112 13309ft 336kts
03-Jan-18 13:33 36.074622 -115.509586 112 12277ft 299kts
03-Jan-18 13:34 36.045149 -115.418753 111 11411ft 272kts
03-Jan-18 13:35 36.027262 -115.331018 94 10497ft 273kts
03-Jan-18 13:36 36.021098 -115.238877 95 9437ft 267kts
03-Jan-18 13:37 36.014876 -115.148758 94 8563ft 263kts
03-Jan-18 13:38 36.010327 -115.059366 92 7323ft 236kts
03-Jan-18 13:39 36.021916 -114.990823 24 6057ft 194kts
03-Jan-18 13:40 36.068792 -115.004959 311 4567ft 167kts
03-Jan-18 13:41 36.073052 -115.059506 272 3201ft 160kts
03-Jan-18 13:42 36.073560 -115.114206 270 2323ft 154kts
03-Jan-18 13:43 36.073799 -115.148138 288 2112ft 30kts
03-Jan-18 13:44 36.076244 -115.151897 333 2122ft 17kts

Navigation Log

Ident Type
Flight plan parsing failed, navigation log unavailable